METAR Data
IDs: Format: Raw Decoded Include TAF

Data at: 0202 UTC 24 Sep 2018

KRCV 240155Z AUTO 24011G15KT 10SM CLR 19/M03 A3015 RMK AO2 T01851029
KRCV 240135Z AUTO 23011G18KT 10SM CLR 19/M03 A3014 RMK AO2 T01901030
KRCV 240115Z AUTO 23008KT 10SM CLR 19/M03 A3014 RMK AO2 T01891027
KRCV 240055Z AUTO 23007KT 10SM CLR 20/M03 A3014 RMK AO2 T01981027
KRCV 240035Z AUTO 22009G14KT 10SM CLR 21/M03 A3014 RMK AO2 T02121028
KRCV 240015Z AUTO 21013G17KT 10SM CLR 22/M03 A3014 RMK AO2 T02201029
KRCV 232355Z AUTO 22010G16KT 10SM CLR 23/M03 A3014 RMK AO2 T02271026 10237 20191
KRCV 232335Z AUTO 21010G14KT 10SM CLR 23/M03 A3014 RMK AO2 T02341028
KRCV 232315Z AUTO 21007KT 10SM CLR 24/M03 A3014 RMK AO2 T02361028
KRCV 232255Z AUTO 10009G15KT 10SM CLR 23/00 A3015 RMK AO2 T02331001
KRCV 232235Z AUTO 12009KT 10SM CLR 23/00 A3016 RMK AO2 T02331001
KRCV 232215Z AUTO 13011KT 10SM SCT110 23/00 A3017 RMK AO2 T02321003
KRCV 232155Z AUTO 13009G14KT 10SM CLR 23/00 A3017 RMK AO2 T02301003
KRCV 232135Z AUTO 15006KT 10SM CLR 23/00 A3019 RMK AO2 T02311005
KRCV 232115Z AUTO 13007KT 10SM CLR 23/M01 A3019 RMK AO2 T02281006
KRCV 232055Z AUTO 15008KT 130V190 10SM SCT100 23/M01 A3020 RMK AO2 T02291010
KRCV 232035Z AUTO 10009G15KT 070V130 10SM CLR 23/M01 A3021 RMK AO2 T02291009
KRCV 232015Z AUTO 14008G15KT 10SM CLR 22/M01 A3022 RMK AO2 T02231010
KRCV 231955Z AUTO 16009G14KT 10SM CLR 23/M01 A3024 RMK AO2 T02261007
KRCV 231935Z AUTO 13008G15KT 110V170 10SM CLR 22/M01 A3025 RMK AO2 T02201006
KRCV 231915Z AUTO 14010KT 10SM CLR 22/00 A3026 RMK AO2 T02211002
KRCV 231855Z AUTO 12006KT 10SM CLR 21/00 A3028 RMK AO2 T02081004
KRCV 231835Z AUTO 13005KT 10SM CLR 21/00 A3028 RMK AO2 T02071002
KRCV 231815Z AUTO 08009KT 10SM CLR 20/02 A3030 RMK AO2 T02040016
KRCV 231755Z AUTO 10008KT 10SM CLR 19/00 A3031 RMK AO2 T01910004 10191 20075
KRCV 231735Z AUTO 09004KT 10SM CLR 19/01 A3032 RMK AO2 T01850005
KRCV 231715Z AUTO 10005KT 10SM CLR 18/01 A3033 RMK AO2 T01810005
KRCV 231655Z AUTO 10007KT 10SM CLR 17/00 A3034 RMK AO2 T01720000
KRCV 231635Z AUTO 09004KT 10SM CLR 17/00 A3035 RMK AO2 T01670000
KRCV 231615Z AUTO 09004KT 10SM CLR 16/M01 A3035 RMK AO2 T01621010
KRCV 231555Z AUTO 00000KT 10SM CLR 16/M02 A3035 RMK AO2 T01551020
KRCV 231535Z AUTO 24004KT 10SM CLR 15/M01 A3035 RMK AO2 T01451014
KRCV 231515Z AUTO 24005KT 10SM CLR 14/M02 A3035 RMK AO2 T01371016
KRCV 231455Z AUTO 27008KT 10SM CLR 13/M02 A3035 RMK AO2 T01251017
KRCV 231435Z AUTO 27013KT 10SM CLR 11/M02 A3035 RMK AO2 T01141020
KRCV 231415Z AUTO 26012KT 10SM CLR 11/M02 A3035 RMK AO2 T01061022
KRCV 231355Z AUTO 25012KT 10SM CLR 10/M02 A3035 RMK AO2 T00981023
KRCV 231335Z AUTO 28013KT 10SM CLR 09/M02 A3034 RMK AO2 T00891022
KRCV 231315Z AUTO 27011KT 10SM CLR 08/M02 A3035 RMK AO2 T00751022
KRCV 231255Z AUTO 27012KT 10SM CLR 09/M02 A3034 RMK AO2 T00861025
KRCV 231235Z AUTO 26008KT 10SM CLR 09/M02 A3034 RMK AO2 T00871024
KRCV 231215Z AUTO 27016KT 10SM CLR 08/M02 A3033 RMK AO2 T00801023
KRCV 231155Z AUTO 27013KT 10SM CLR 08/M02 A3033 RMK AO2 T00791021 10146 20075
KRCV 231115Z AUTO 29013KT 10SM CLR 08/M02 A3032 RMK AO2 T00801021
KRCV 231055Z AUTO 29009KT 10SM CLR 08/M02 A3033 RMK AO2 T00771020
KRCV 231035Z AUTO 30009KT 10SM CLR 08/M02 A3032 RMK AO2 T00811020
KRCV 231015Z AUTO 30012KT 10SM CLR 09/M02 A3032 RMK AO2 T00911018
KRCV 230955Z AUTO 29008KT 10SM CLR 09/M02 A3032 RMK AO2 T00941017
KRCV 230935Z AUTO 30010KT 10SM CLR 10/M02 A3032 RMK AO2 T00951017
KRCV 230915Z AUTO 27008KT 10SM CLR 10/M01 A3032 RMK AO2 T01011015
KRCV 230855Z AUTO 23006KT 10SM CLR 10/M01 A3032 RMK AO2 T01021015
KRCV 230835Z AUTO 26006KT 10SM CLR 10/M01 A3032 RMK AO2 T01041015
KRCV 230815Z AUTO 29009KT 10SM CLR 11/M01 A3031 RMK AO2 T01091015
KRCV 230755Z AUTO 28010KT 10SM CLR 11/M01 A3031 RMK AO2 T01121015
KRCV 230735Z AUTO 28009KT 10SM CLR 11/M01 A3031 RMK AO2 T01111013
KRCV 230715Z AUTO 28012KT 10SM CLR 12/M01 A3032 RMK AO2 T01171012
KRCV 230655Z AUTO 28012KT 10SM CLR 12/M01 A3032 RMK AO2 T01151010 402210037
KRCV 230635Z AUTO 28011KT 10SM CLR 12/M01 A3032 RMK AO2 T01221010
KRCV 230615Z AUTO 28009KT 10SM CLR 14/M01 A3031 RMK AO2 T01371015
KRCV 230555Z AUTO 27011KT 10SM CLR 14/M01 A3031 RMK AO2 T01421015 10211 20131
KRCV 230535Z AUTO 27009KT 10SM CLR 15/M01 A3032 RMK AO2 T01481015
KRCV 230515Z AUTO 27011KT 10SM CLR 15/M01 A3032 RMK AO2 T01511014
KRCV 230455Z AUTO 28011KT 10SM CLR 15/M01 A3032 RMK AO2 T01471012
KRCV 230435Z AUTO 28009KT 10SM CLR 15/M01 A3032 RMK AO2 T01481011
KRCV 230415Z AUTO 28009KT 10SM CLR 15/M01 A3032 RMK AO2 T01501010
KRCV 230355Z AUTO 26005KT 10SM CLR 14/00 A3032 RMK AO2 T01361004
KRCV 230335Z AUTO 23009KT 10SM CLR 14/00 A3031 RMK AO2 T01371001
KRCV 230315Z AUTO 24008KT 10SM CLR 14/01 A3031 RMK AO2 T01350008
KRCV 230255Z AUTO 24006KT 10SM SCT120 15/01 A3031 RMK AO2 T01460014
KRCV 230235Z AUTO 26006KT 10SM BKN120 16/02 A3030 RMK AO2 T01560018
KRCV 230215Z AUTO 26004KT 10SM OVC120 17/01 A3030 RMK AO2 T01670012
KRCV 230155Z AUTO 27005KT 10SM BKN120 17/02 A3030 RMK AO2 T01670015
KRCV 230135Z AUTO 30008KT 10SM SCT110 16/02 A3030 RMK AO2 T01600018
KRCV 230115Z AUTO 00000KT 10SM SCT110 16/03 A3030 RMK AO2 T01570025
KRCV 230055Z AUTO 00000KT 10SM CLR 17/03 A3030 RMK AO2 T01690031
KRCV 230035Z AUTO 09006KT 10SM CLR 18/02 A3030 RMK AO2 T01820022
KRCV 230015Z AUTO 09005KT 10SM CLR 21/02 A3030 RMK AO2 T02060015
KRCV 222355Z AUTO 08004KT 10SM SCT120 21/01 A3030 RMK AO2 T02110011 10221 20166
KRCV 222335Z AUTO 09007KT 10SM SCT090 SCT120 22/02 A3030 RMK AO2 T02150022
KRCV 222315Z AUTO 08005KT 10SM SCT090 21/03 A3030 RMK AO2 T02090028
KRCV 222255Z AUTO 08007KT 10SM CLR 21/03 A3030 RMK AO2 T02090025
KRCV 222235Z AUTO 09007KT 10SM CLR 21/02 A3031 RMK AO2 T02090022
KRCV 222215Z AUTO 09007KT 10SM CLR 21/02 A3031 RMK AO2 T02110019
KRCV 222135Z AUTO 06006G14KT 10SM CLR 22/01 A3032 RMK AO2 T02180011
KRCV 222115Z AUTO 10008KT 10SM CLR 22/02 A3033 RMK AO2 T02150016
KRCV 222055Z AUTO 07007KT 10SM CLR 21/02 A3035 RMK AO2 T02070016
KRCV 222035Z AUTO 11006KT 10SM CLR 21/02 A3036 RMK AO2 T02100017
KRCV 222015Z AUTO 10005KT 10SM CLR 21/02 A3037 RMK AO2 T02050020
KRCV 221955Z AUTO 10009KT 060V120 10SM CLR 20/04 A3038 RMK AO2 T02010036
KRCV 221935Z AUTO 11006KT 10SM CLR 19/03 A3040 RMK AO2 T01930033
KRCV 221915Z AUTO 12005KT 10SM CLR 19/05 A3040 RMK AO2 T01870047
KRCV 221855Z AUTO 13006KT 10SM CLR 18/06 A3042 RMK AO2 T01830059
KRCV 221835Z AUTO 08003KT 10SM CLR 18/06 A3043 RMK AO2 T01780062
KRCV 221815Z AUTO 06006KT 10SM CLR 17/06 A3044 RMK AO2 T01710058
KRCV 221755Z AUTO 10009KT 10SM CLR 17/07 A3045 RMK AO2 T01680066 10168 20037
KRCV 221735Z AUTO 09009KT 10SM CLR 16/07 A3046 RMK AO2 T01600069
KRCV 221715Z AUTO 06003KT 10SM CLR 15/07 A3047 RMK AO2 T01500065
KRCV 221655Z AUTO 09009KT 10SM CLR 15/07 A3047 RMK AO2 T01480072
KRCV 221635Z AUTO 06007KT 020V100 10SM CLR 14/07 A3048 RMK AO2 T01430072
KRCV 221615Z AUTO 05007KT 10SM CLR 14/07 A3048 RMK AO2 T01380068
KRCV 221555Z AUTO 07007KT 10SM CLR 14/07 A3048 RMK AO2 T01370067
KRCV 221535Z AUTO 03004KT 10SM CLR 13/05 A3048 RMK AO2 T01280051
KRCV 221515Z AUTO 07004KT 10SM CLR 12/04 A3048 RMK AO2 T01210041
KRCV 221455Z AUTO 09004KT 10SM CLR 11/03 A3048 RMK AO2 T01100026
KRCV 221415Z AUTO 25005KT 10SM CLR 09/01 A3048 RMK AO2 T00940014